Time;durP1;ratioP1;P1;durP2;ratioP2;P2;SDS_P1;SDS_P2;PMS_P1;PMS_P2;Temp;Humidity;BMP_temperature;BMP_pressure;BME280_temperature;BME280_humidity;BME280_pressure;Samples;Min_cycle;Max_cycle;Signal;HPM_P1;HPM_P2
2023/10/25 00:01:55;;;;;;;18.88;6.00;;;;;;;16.40;55.95;94207.69;4205871;28;20067;-69
2023/10/25 00:03:57;;;;;;;23.25;6.03;;;;;;;16.43;55.88;94204.63;4207828;28;20040;-69
2023/10/25 00:05:59;;;;;;;18.88;5.95;;;;;;;16.45;56.05;94205.22;4193356;28;20056;-70
2023/10/25 00:08:01;;;;;;;14.38;6.43;;;;;;;16.43;55.93;94185.31;4210247;28;20088;-71
2023/10/25 00:10:03;;;;;;;19.30;6.65;;;;;;;16.36;56.32;94170.25;4205081;28;20051;-72
2023/10/25 00:12:06;;;;;;;18.08;6.32;;;;;;;16.33;56.64;94165.41;4195745;28;20084;-69
2023/10/25 00:14:08;;;;;;;19.83;6.43;;;;;;;16.31;56.64;94156.88;4186889;28;20816;-69
2023/10/25 00:16:10;;;;;;;16.35;6.07;;;;;;;16.28;56.66;94173.16;4207772;28;20496;-72
2023/10/25 00:18:12;;;;;;;14.77;5.65;;;;;;;16.24;56.69;94179.88;4194023;28;20550;-69
2023/10/25 00:20:14;;;;;;;18.17;6.72;;;;;;;15.89;57.53;94163.44;4205496;28;20471;-71
2023/10/25 00:22:15;;;;;;;18.52;6.18;;;;;;;15.62;58.69;94175.84;4208952;28;20514;-71
2023/10/25 00:24:17;;;;;;;20.83;6.78;;;;;;;15.64;58.59;94185.16;4195270;28;20044;-70
2023/10/25 00:26:19;;;;;;;15.68;6.03;;;;;;;15.69;58.67;94193.28;4209938;28;20052;-70
2023/10/25 00:28:21;;;;;;;19.95;6.57;;;;;;;15.70;58.59;94189.66;4196009;28;20052;-69
2023/10/25 00:30:22;;;;;;;21.95;6.97;;;;;;;15.72;58.73;94176.25;4213243;28;20056;-71
2023/10/25 00:32:24;;;;;;;13.15;6.40;;;;;;;15.74;58.67;94177.69;4196037;28;20049;-69
2023/10/25 00:34:26;;;;;;;22.80;6.80;;;;;;;15.76;58.62;94175.63;4192527;28;20044;-73
2023/10/25 00:36:29;;;;;;;20.75;7.07;;;;;;;15.82;58.49;94173.22;4214024;28;20119;-70
2023/10/25 00:38:31;;;;;;;24.25;6.57;;;;;;;15.87;58.36;94170.75;4212887;28;20066;-71
2023/10/25 00:40:32;;;;;;;18.42;6.38;;;;;;;15.92;58.24;94165.69;4195081;28;20048;-71
2023/10/25 00:42:34;;;;;;;17.00;6.55;;;;;;;15.94;58.20;94150.47;4213651;28;20429;-70
2023/10/25 00:44:37;;;;;;;19.77;6.82;;;;;;;15.90;58.49;94157.97;4177011;28;20123;-70
2023/10/25 00:46:40;;;;;;;14.88;5.95;;;;;;;15.91;57.93;94162.22;4213886;28;20376;-69
2023/10/25 00:48:45;;;;;;;24.90;6.95;;;;;;;15.93;57.99;94156.75;4195630;28;20041;-69
2023/10/25 00:50:47;;;;;;;22.85;6.50;;;;;;;15.95;57.96;94168.72;4195230;28;20063;-71
2023/10/25 00:52:49;;;;;;;16.80;6.07;;;;;;;15.93;57.96;94180.50;4212859;28;20481;-69
2023/10/25 00:54:51;;;;;;;18.05;6.47;;;;;;;15.69;58.33;94185.38;4207269;28;20497;-71
2023/10/25 00:56:55;;;;;;;18.98;6.97;;;;;;;15.61;59.04;94190.03;4210702;28;20040;-71
2023/10/25 00:58:58;;;;;;;18.25;6.05;;;;;;;15.65;58.70;94178.84;4212562;28;20052;-69
2023/10/25 01:01:00;;;;;;;18.10;6.10;;;;;;;15.73;58.64;94172.59;4211995;28;20051;-69
2023/10/25 01:03:06;;;;;;;18.38;6.45;;;;;;;15.81;58.40;94166.28;4195578;28;20083;-68
2023/10/25 01:05:08;;;;;;;26.13;6.72;;;;;;;15.82;58.46;94147.59;4194414;28;20059;-68
2023/10/25 01:07:10;;;;;;;21.25;6.28;;;;;;;15.88;58.15;94149.44;4212433;28;20481;-70
2023/10/25 01:09:12;;;;;;;17.95;7.07;;;;;;;15.90;58.14;94128.09;4211173;28;20052;-71
2023/10/25 01:11:15;;;;;;;19.27;6.30;;;;;;;15.79;58.28;94134.81;4206336;28;20515;-69
2023/10/25 01:13:17;;;;;;;18.42;6.38;;;;;;;15.79;58.47;94140.09;4204805;28;20151;-70
2023/10/25 01:15:22;;;;;;;15.73;6.22;;;;;;;15.81;58.21;94153.09;4199259;28;20484;-69
2023/10/25 01:17:24;;;;;;;20.20;6.53;;;;;;;15.84;58.11;94140.28;4205496;28;20077;-67
2023/10/25 01:19:27;;;;;;;15.23;6.35;;;;;;;15.84;58.20;94135.00;4211178;28;20052;-70
2023/10/25 01:21:28;;;;;;;18.80;6.47;;;;;;;15.82;58.63;94123.03;4194485;28;20040;-70
2023/10/25 01:23:31;;;;;;;21.35;6.90;;;;;;;15.74;58.55;94122.25;4206334;28;20040;-69
2023/10/25 01:25:33;;;;;;;13.98;6.25;;;;;;;15.64;58.91;94135.00;4195994;28;20083;-69
2023/10/25 01:27:35;;;;;;;15.93;5.85;;;;;;;15.61;58.81;94145.97;4194444;28;20052;-67
2023/10/25 01:29:36;;;;;;;15.80;6.25;;;;;;;15.66;58.74;94137.41;4208436;28;20071;-71
2023/10/25 01:31:39;;;;;;;19.88;6.63;;;;;;;15.68;59.04;94124.81;4212963;28;20500;-74
2023/10/25 01:33:44;;;;;;;18.15;6.50;;;;;;;15.71;58.92;94127.06;4194982;28;20402;-69
2023/10/25 01:35:46;;;;;;;17.33;7.05;;;;;;;15.73;59.00;94125.88;4212113;28;20090;-70
2023/10/25 01:37:48;;;;;;;20.35;6.97;;;;;;;15.70;59.06;94123.63;4211477;28;20484;-71
2023/10/25 01:39:50;;;;;;;21.08;6.45;;;;;;;15.72;58.84;94131.34;4194860;28;20048;-68
2023/10/25 01:41:52;;;;;;;17.42;6.43;;;;;;;15.74;58.42;94138.09;4194823;28;20538;-71
2023/10/25 01:43:54;;;;;;;20.63;8.43;;;;;;;15.76;58.61;94141.31;4202226;28;20040;-70
2023/10/25 01:45:56;;;;;;;19.63;8.20;;;;;;;15.62;58.96;94147.59;4208501;28;20074;-69
2023/10/25 01:47:58;;;;;;;17.23;7.32;;;;;;;15.58;59.27;94149.00;4212404;28;20133;-67
2023/10/25 01:50:00;;;;;;;19.95;7.35;;;;;;;15.61;59.16;94155.72;4198228;28;20496;-70
2023/10/25 01:52:02;;;;;;;20.15;6.95;;;;;;;15.67;59.17;94158.34;4193715;28;20068;-72
2023/10/25 01:54:06;;;;;;;19.58;6.40;;;;;;;15.66;59.10;94153.25;4212126;28;20048;-69
2023/10/25 01:56:09;;;;;;;18.80;6.57;;;;;;;15.69;59.04;94158.97;4212087;28;20048;-70
2023/10/25 01:58:11;;;;;;;19.52;7.22;;;;;;;15.75;58.89;94165.28;4199089;28;20098;-71
2023/10/25 02:00:13;;;;;;;13.73;5.65;;;;;;;15.79;58.91;94176.25;4211888;28;20440;-71
2023/10/25 02:02:15;;;;;;;19.08;7.93;;;;;;;15.75;58.73;94175.84;4212575;28;20055;-70
2023/10/25 02:04:19;;;;;;;23.17;8.05;;;;;;;15.80;58.80;94181.34;4211489;28;20500;-70
2023/10/25 02:06:21;;;;;;;19.27;7.32;;;;;;;15.65;58.97;94173.56;4193673;28;20098;-72
2023/10/25 02:08:24;;;;;;;20.88;7.00;;;;;;;15.50;59.28;94165.06;4212309;28;20048;-72
2023/10/25 02:10:25;;;;;;;18.83;7.22;;;;;;;15.44;59.58;94156.09;4211639;28;20044;-69
2023/10/25 02:12:28;;;;;;;22.08;6.93;;;;;;;15.52;59.48;94153.25;4208957;28;20044;-69
2023/10/25 02:14:32;;;;;;;19.75;7.50;;;;;;;15.57;59.20;94150.00;4204349;28;20067;-71
2023/10/25 02:16:34;;;;;;;21.25;7.75;;;;;;;15.66;59.22;94154.09;4195197;28;20048;-70
2023/10/25 02:18:36;;;;;;;18.40;6.93;;;;;;;15.72;58.78;94155.13;4211174;28;20050;-69
2023/10/25 02:20:39;;;;;;;17.63;6.25;;;;;;;15.73;58.95;94147.00;4212297;28;20124;-68
2023/10/25 02:22:42;;;;;;;15.35;7.05;;;;;;;15.73;58.46;94139.09;4194111;28;20133;-69
2023/10/25 02:24:44;;;;;;;21.98;7.60;;;;;;;15.75;58.64;94154.72;4189897;28;20059;-69
2023/10/25 02:26:46;;;;;;;21.98;6.72;;;;;;;15.76;58.43;94141.31;4206986;28;20456;-71
2023/10/25 02:28:48;;;;;;;24.73;8.20;;;;;;;15.77;58.89;94131.56;4211380;28;20083;-70
2023/10/25 02:30:50;;;;;;;16.05;7.00;;;;;;;15.69;59.14;94127.28;4207789;28;20046;-70
2023/10/25 02:32:52;;;;;;;15.85;6.38;;;;;;;15.71;58.91;94119.16;4212946;28;20048;-67
2023/10/25 02:34:53;;;;;;;19.17;6.97;;;;;;;15.71;59.04;94101.50;4201774;28;20504;-70
2023/10/25 02:36:55;;;;;;;23.52;6.68;;;;;;;15.71;58.71;94088.31;4204780;28;20063;-71
2023/10/25 02:38:57;;;;;;;18.77;5.93;;;;;;;15.72;58.59;94079.38;4194366;28;20060;-69
2023/10/25 02:41:02;;;;;;;25.73;6.95;;;;;;;15.74;58.79;94076.50;4194431;28;20044;-70
2023/10/25 02:43:04;;;;;;;19.60;6.40;;;;;;;15.73;58.69;94056.41;4207850;28;20496;-67
2023/10/25 02:45:06;;;;;;;16.40;5.55;;;;;;;15.71;58.60;94059.25;4177693;28;20059;-69
2023/10/25 02:47:08;;;;;;;18.42;5.50;;;;;;;15.61;58.93;94036.91;4210538;28;20135;-70
2023/10/25 02:49:10;;;;;;;21.33;6.55;;;;;;;15.62;58.83;94039.34;4203776;28;20048;-69
2023/10/25 02:51:12;;;;;;;18.05;6.13;;;;;;;15.69;58.61;94041.97;4207227;28;20121;-70
2023/10/25 02:53:14;;;;;;;18.02;6.13;;;;;;;15.64;58.75;94024.13;4204224;28;20074;-71
2023/10/25 02:55:16;;;;;;;16.48;5.35;;;;;;;15.43;59.25;94040.19;4207034;28;20064;-69
2023/10/25 02:57:18;;;;;;;19.88;5.93;;;;;;;15.45;59.19;94043.44;4211691;28;20044;-70
2023/10/25 02:59:20;;;;;;;21.48;5.72;;;;;;;15.49;59.05;94032.25;4208423;28;20473;-70
2023/10/25 03:01:23;;;;;;;23.23;6.13;;;;;;;15.58;59.05;94043.41;4210875;28;20549;-67
2023/10/25 03:03:30;;;;;;;25.25;6.28;;;;;;;15.71;58.59;94050.50;4216685;28;20055;-69
2023/10/25 03:05:32;;;;;;;22.60;6.15;;;;;;;15.74;58.31;94021.06;4197838;28;20048;-71
2023/10/25 03:07:33;;;;;;;19.25;5.50;;;;;;;15.61;58.60;94021.06;4214677;28;20040;-69
2023/10/25 03:09:35;;;;;;;22.73;6.15;;;;;;;15.61;58.47;94040.34;4192992;28;20059;-72
2023/10/25 03:11:38;;;;;;;20.60;5.28;;;;;;;15.69;58.35;94034.06;4196739;28;20040;-70
2023/10/25 03:13:39;;;;;;;25.30;8.30;;;;;;;15.47;58.56;94013.19;4188574;28;20074;-70
2023/10/25 03:15:42;;;;;;;20.80;5.90;;;;;;;15.46;58.95;94030.00;4196193;28;20058;-71
2023/10/25 03:17:44;;;;;;;25.15;6.60;;;;;;;15.60;58.46;94038.75;4214921;28;20142;-69
2023/10/25 03:19:46;;;;;;;24.15;5.63;;;;;;;15.60;58.21;94033.47;4215456;28;20441;-72
2023/10/25 03:21:48;;;;;;;16.13;5.68;;;;;;;15.69;58.27;94032.22;4204728;28;20048;-70
2023/10/25 03:23:50;;;;;;;13.75;5.07;;;;;;;15.85;57.92;94030.16;4208195;28;20105;-68
2023/10/25 03:25:51;;;;;;;24.63;6.20;;;;;;;15.83;57.59;94043.59;4215460;28;20287;-70
2023/10/25 03:27:54;;;;;;;20.42;5.43;;;;;;;15.82;57.73;94025.31;4196793;28;20535;-69
2023/10/25 03:29:59;;;;;;;25.30;6.53;;;;;;;15.74;57.88;94024.53;4212826;28;20484;-68
2023/10/25 03:32:01;;;;;;;18.67;5.35;;;;;;;15.83;57.85;94027.75;4215037;28;20044;-72
2023/10/25 03:34:04;;;;;;;23.50;6.43;;;;;;;15.60;58.32;94001.78;4209283;28;20097;-70
2023/10/25 03:36:06;;;;;;;20.65;6.20;;;;;;;15.32;59.54;94007.31;4206179;28;20099;-70
2023/10/25 03:38:08;;;;;;;21.80;6.70;;;;;;;15.15;60.04;94014.84;4214625;28;20054;-71
2023/10/25 03:40:11;;;;;;;20.65;6.05;;;;;;;15.13;60.40;94041.41;4214885;28;20052;-71
2023/10/25 03:42:12;;;;;;;19.27;5.63;;;;;;;15.25;60.09;94038.16;4201042;28;20127;-70
2023/10/25 03:44:14;;;;;;;25.67;6.68;;;;;;;15.31;59.41;94016.22;4195525;28;20047;-71
2023/10/25 03:46:16;;;;;;;23.13;7.10;;;;;;;15.14;60.32;94000.00;4215486;28;20516;-68
2023/10/25 03:48:18;;;;;;;22.17;6.60;;;;;;;15.17;60.64;94018.09;4215161;28;20066;-71
2023/10/25 03:50:21;;;;;;;21.67;6.65;;;;;;;15.33;60.18;94043.22;4197123;28;20063;-69
2023/10/25 03:52:23;;;;;;;25.55;7.10;;;;;;;15.48;59.54;94043.00;4209054;28;20508;-69
2023/10/25 03:54:25;;;;;;;23.40;6.78;;;;;;;15.62;59.23;94039.34;4196150;28;20084;-71
2023/10/25 03:56:28;;;;;;;27.23;7.55;;;;;;;15.73;58.56;94030.81;4209426;28;20079;-69
2023/10/25 03:58:29;;;;;;;17.37;6.33;;;;;;;15.86;58.45;94032.63;4213507;28;20048;-71
2023/10/25 04:00:31;;;;;;;18.48;6.55;;;;;;;15.94;58.21;94035.03;4211309;28;20047;-71
2023/10/25 04:02:33;;;;;;;24.30;6.55;;;;;;;15.97;58.03;94023.22;4189204;28;20066;-71
2023/10/25 04:04:35;;;;;;;20.50;7.05;;;;;;;15.95;58.14;94014.69;4211427;28;20090;-70
2023/10/25 04:06:37;;;;;;;29.75;6.85;;;;;;;15.99;58.14;94015.09;4214046;28;20389;-70
2023/10/25 04:08:39;;;;;;;20.45;6.78;;;;;;;16.05;57.89;94019.56;4211013;28;20044;-73
2023/10/25 04:10:41;;;;;;;18.88;6.75;;;;;;;15.91;58.12;94019.59;4207545;28;20072;-72
2023/10/25 04:12:43;;;;;;;24.15;6.65;;;;;;;15.87;58.46;94026.28;4208458;28;20479;-70
2023/10/25 04:14:48;;;;;;;28.33;7.43;;;;;;;15.93;58.53;94022.81;4202127;28;20052;-72
2023/10/25 04:16:49;;;;;;;19.63;7.20;;;;;;;16.01;58.29;94019.16;4214362;28;20047;-72
2023/10/25 04:18:53;;;;;;;22.90;7.07;;;;;;;16.06;58.06;94023.81;4196055;28;20055;-71
2023/10/25 04:20:56;;;;;;;33.95;8.40;;;;;;;16.10;57.84;94030.28;4215094;28;20510;-71
2023/10/25 04:22:58;;;;;;;26.77;7.60;;;;;;;16.11;58.19;94023.97;4210806;28;20049;-70
2023/10/25 04:25:03;;;;;;;24.58;7.32;;;;;;;16.15;57.93;94028.66;4202725;28;20048;-71
2023/10/25 04:27:05;;;;;;;22.80;7.93;;;;;;;16.20;57.71;94022.75;4197135;28;20163;-72
2023/10/25 04:29:07;;;;;;;23.00;7.05;;;;;;;16.25;57.47;94030.84;4205808;28;20390;-72
2023/10/25 04:31:10;;;;;;;26.15;7.13;;;;;;;16.30;57.31;94019.63;4194034;28;20070;-72
2023/10/25 04:33:12;;;;;;;25.88;7.32;;;;;;;16.34;57.31;94002.34;4204785;28;20109;-72
2023/10/25 04:35:14;;;;;;;31.45;7.85;;;;;;;16.36;57.28;93997.66;4215747;28;20076;-73
2023/10/25 04:37:16;;;;;;;29.15;8.05;;;;;;;16.37;57.24;93999.28;4215119;28;20573;-71
2023/10/25 04:39:18;;;;;;;24.67;7.97;;;;;;;16.41;57.31;93997.00;4215022;28;20385;-74
2023/10/25 04:41:20;;;;;;;25.33;9.20;;;;;;;16.37;57.34;93989.50;4196781;28;20044;-73
2023/10/25 04:43:23;;;;;;;27.43;8.90;;;;;;;16.32;57.88;93991.16;4196464;28;20544;-72
2023/10/25 04:45:24;;;;;;;22.85;8.15;;;;;;;16.31;57.61;93985.06;4213965;28;20052;-72
2023/10/25 04:47:26;;;;;;;22.95;8.38;;;;;;;16.30;57.58;93972.88;4206580;28;20044;-71
2023/10/25 04:49:29;;;;;;;21.90;8.02;;;;;;;16.26;57.73;93958.47;4211563;28;20090;-71
2023/10/25 04:51:30;;;;;;;23.45;8.23;;;;;;;16.26;57.94;93947.91;4208414;28;20452;-72
2023/10/25 04:53:33;;;;;;;30.83;7.85;;;;;;;16.27;57.88;93957.44;4206076;28;20170;-71
2023/10/25 04:55:36;;;;;;;22.63;7.72;;;;;;;16.33;57.49;93955.78;4203948;28;20040;-70
2023/10/25 04:57:38;;;;;;;24.52;8.63;;;;;;;16.09;57.99;93952.03;4211693;28;20068;-72
2023/10/25 04:59:39;;;;;;;29.05;7.78;;;;;;;15.74;58.91;93960.31;4213015;28;20046;-70
2023/10/25 05:01:42;;;;;;;25.88;7.68;;;;;;;15.53;59.87;93961.38;4211523;28;20488;-72
2023/10/25 05:03:44;;;;;;;19.30;7.93;;;;;;;15.30;60.50;93946.81;4211131;28;20411;-73
2023/10/25 05:05:47;;;;;;;27.83;8.73;;;;;;;15.30;61.05;93953.94;4214258;28;20071;-71
2023/10/25 05:07:51;;;;;;;23.23;8.10;;;;;;;15.36;60.54;93953.91;4213127;28;20122;-70
2023/10/25 05:09:53;;;;;;;31.90;8.85;;;;;;;15.45;60.59;93957.13;4212000;28;20048;-73
2023/10/25 05:11:56;;;;;;;31.52;8.52;;;;;;;15.61;60.29;93965.63;4212246;28;20052;-73
2023/10/25 05:13:59;;;;;;;34.75;9.75;;;;;;;15.66;59.72;93965.78;4211869;28;20055;-73
2023/10/25 05:16:01;;;;;;;31.63;8.73;;;;;;;15.73;59.68;93956.06;4212684;28;20093;-70
2023/10/25 05:18:04;;;;;;;28.27;8.85;;;;;;;15.81;59.41;93969.06;4212443;28;20056;-70
2023/10/25 05:20:07;;;;;;;24.10;8.70;;;;;;;15.90;59.17;93978.34;4191599;28;20060;-72
2023/10/25 05:22:11;;;;;;;25.48;9.45;;;;;;;15.84;59.24;93960.69;4211680;28;20048;-71
2023/10/25 05:24:13;;;;;;;33.38;9.60;;;;;;;15.79;59.62;93972.91;4209961;28;20060;-71
2023/10/25 05:26:16;;;;;;;28.10;8.07;;;;;;;15.85;59.45;93975.53;4212528;28;20050;-72
2023/10/25 05:28:18;;;;;;;25.95;8.77;;;;;;;15.90;59.23;93967.78;4180009;28;20055;-73
2023/10/25 05:30:21;;;;;;;24.17;8.30;;;;;;;15.95;59.42;93977.72;4204179;28;20054;-74
2023/10/25 05:32:24;;;;;;;30.63;8.98;;;;;;;16.02;59.09;93957.34;4214676;28;20055;-72
2023/10/25 05:34:26;;;;;;;31.40;8.70;;;;;;;16.03;59.05;93958.19;4193935;28;20052;-71
2023/10/25 05:36:28;;;;;;;31.95;7.45;;;;;;;16.08;58.90;93955.72;4213965;28;20553;-71
2023/10/25 05:38:31;;;;;;;29.10;8.32;;;;;;;16.03;58.80;93963.47;4213457;28;20044;-72
2023/10/25 05:40:33;;;;;;;32.33;8.73;;;;;;;16.03;58.66;93959.00;4195614;28;20063;-71
2023/10/25 05:42:45;;;;;;;29.90;8.55;;;;;;;16.10;58.62;93957.13;4210412;28;20399;-73
2023/10/25 05:44:51;;;;;;;20.45;7.47;;;;;;;16.16;58.63;93960.75;4203783;28;20044;-72
2023/10/25 05:46:53;;;;;;;25.60;8.30;;;;;;;16.19;58.32;93955.03;4212683;28;20054;-73
2023/10/25 05:48:55;;;;;;;20.83;7.95;;;;;;;16.26;58.17;93953.19;4212715;28;20051;-71
2023/10/25 05:51:02;;;;;;;24.60;8.15;;;;;;;16.31;58.17;93966.56;4212439;28;20135;-71
2023/10/25 05:53:05;;;;;;;27.10;8.15;;;;;;;16.39;57.94;93978.75;4194814;28;20139;-72
2023/10/25 05:55:08;;;;;;;28.90;8.88;;;;;;;16.36;58.05;93979.16;4212443;28;20431;-71
2023/10/25 05:57:12;;;;;;;33.63;9.75;;;;;;;16.40;58.04;93979.53;4205998;28;20066;-70
2023/10/25 05:59:15;;;;;;;26.67;7.95;;;;;;;16.23;58.16;93981.88;4204640;28;20140;-71
2023/10/25 06:01:18;;;;;;;25.33;6.85;;;;;;;16.06;58.58;93971.78;4212592;28;20055;-71
2023/10/25 06:03:21;;;;;;;;;;;;;;;16.09;58.61;93991.66;4213408;28;20466;-70
2023/10/25 06:05:26;;;;;;;25.00;7.18;;;;;;;16.22;58.47;94004.84;4179515;28;19921;-74
2023/10/25 06:07:29;;;;;;;29.60;7.90;;;;;;;16.03;58.83;93971.41;4194058;28;20569;-72
2023/10/25 06:09:31;;;;;;;27.58;8.48;;;;;;;15.71;59.52;93987.13;4178480;28;20416;-72
2023/10/25 06:11:34;;;;;;;25.17;8.88;;;;;;;15.80;59.72;93982.47;4205286;28;20117;-73
2023/10/25 06:13:36;;;;;;;25.23;8.32;;;;;;;15.99;59.42;93991.34;4211501;28;20054;-69
2023/10/25 06:15:38;;;;;;;27.38;8.57;;;;;;;16.13;59.08;93999.00;4203650;28;20059;-69
2023/10/25 06:17:40;;;;;;;31.13;8.90;;;;;;;16.31;58.81;93982.44;4187284;28;20060;-72
2023/10/25 06:19:45;;;;;;;30.88;8.75;;;;;;;16.46;58.21;93994.56;4212840;28;20090;-72
2023/10/25 06:21:47;;;;;;;32.65;8.40;;;;;;;16.59;57.92;93981.25;4205450;28;20078;-72
2023/10/25 06:23:50;;;;;;;25.30;8.23;;;;;;;16.71;57.27;93973.44;4205695;28;20071;-73
2023/10/25 06:25:53;;;;;;;38.70;9.40;;;;;;;16.53;57.58;93982.91;4195475;28;20045;-73
2023/10/25 06:27:57;;;;;;;23.60;8.32;;;;;;;16.30;58.33;93987.91;4192267;28;20131;-71
2023/10/25 06:29:59;;;;;;;34.05;9.52;;;;;;;16.10;58.92;93999.41;4205414;28;20477;-71
2023/10/25 06:32:03;;;;;;;37.90;9.85;;;;;;;16.18;58.97;93982.50;4186838;28;20048;-71
2023/10/25 06:34:04;;;;;;;37.05;8.98;;;;;;;16.25;58.80;93982.47;4202935;28;20504;-73
2023/10/25 06:36:08;;;;;;;27.70;8.68;;;;;;;16.17;58.66;93970.28;4208792;28;20093;-73
2023/10/25 06:38:10;;;;;;;36.70;9.15;;;;;;;16.24;58.79;93973.72;4204676;28;20040;-72
2023/10/25 06:40:12;;;;;;;23.58;8.23;;;;;;;16.38;58.51;93979.75;4216316;28;20101;-73
2023/10/25 06:42:14;;;;;;;24.75;8.10;;;;;;;16.18;58.62;93987.78;4205113;28;20049;-71
2023/10/25 06:44:18;;;;;;;25.65;8.15;;;;;;;16.30;58.38;93986.06;4196452;28;20048;-72
2023/10/25 06:46:20;;;;;;;23.25;8.52;;;;;;;16.46;57.94;93991.91;4214854;28;20089;-73
2023/10/25 06:48:23;;;;;;;35.25;8.15;;;;;;;16.41;58.03;93981.16;4214127;28;20075;-72
2023/10/25 06:50:26;;;;;;;27.67;9.20;;;;;;;16.45;58.05;93988.44;4198341;28;20443;-73
2023/10/25 06:52:31;;;;;;;26.60;8.80;;;;;;;16.57;57.70;93997.31;4214293;28;20067;-72
2023/10/25 06:54:33;;;;;;;25.55;8.38;;;;;;;16.52;57.68;93985.75;4215440;28;20044;-72
2023/10/25 06:56:36;;;;;;;25.90;8.27;;;;;;;16.66;57.50;93987.28;4208666;28;20114;-73
2023/10/25 06:58:38;;;;;;;21.85;8.20;;;;;;;16.78;57.05;93967.06;4194343;28;20131;-74
2023/10/25 07:00:40;;;;;;;32.70;7.95;;;;;;;16.90;56.71;93985.72;4207248;28;20066;-73
2023/10/25 07:02:51;;;;;;;30.45;8.60;;;;;;;16.96;56.42;93984.88;4215353;28;20121;-73
2023/10/25 07:04:58;;;;;;;24.63;7.45;;;;;;;17.08;56.45;93992.94;4206247;28;20104;-74
2023/10/25 07:07:03;;;;;;;28.05;8.30;;;;;;;17.25;56.15;93997.66;4196991;28;20041;-73
2023/10/25 07:09:06;;;;;;;25.33;9.40;;;;;;;17.34;55.58;93999.03;4196967;28;20052;-74
2023/10/25 07:11:08;;;;;;;29.48;8.77;;;;;;;17.46;55.60;94007.03;4212128;28;20107;-71
2023/10/25 07:13:10;;;;;;;33.83;10.57;;;;;;;17.52;55.08;94003.53;4207128;28;20051;-74
2023/10/25 07:15:13;;;;;;;32.65;9.13;;;;;;;17.57;55.09;94009.81;4202188;28;20043;-71
2023/10/25 07:17:15;;;;;;;28.73;8.80;;;;;;;17.65;54.71;94018.47;4215377;28;20056;-74
2023/10/25 07:19:17;;;;;;;24.05;8.32;;;;;;;17.69;54.63;94009.06;4212579;28;20063;-71
2023/10/25 07:21:19;;;;;;;31.70;9.88;;;;;;;17.74;54.21;93998.63;4212130;28;20113;-72
2023/10/25 07:23:21;;;;;;;23.73;7.15;;;;;;;17.65;53.90;94002.59;4212494;28;20047;-73
2023/10/25 07:25:23;;;;;;;34.10;7.65;;;;;;;17.67;54.02;94011.94;4200551;28;20047;-73
2023/10/25 07:27:25;;;;;;;24.85;7.60;;;;;;;17.62;54.00;94017.09;4209662;28;20056;-72
2023/10/25 07:29:27;;;;;;;23.13;7.15;;;;;;;17.18;54.89;94014.41;4209755;28;20397;-71
2023/10/25 07:31:28;;;;;;;30.67;7.80;;;;;;;17.01;55.49;94013.31;4188251;28;20535;-72
2023/10/25 07:33:31;;;;;;;30.70;8.40;;;;;;;17.16;55.38;94015.66;4196861;28;20116;-72
2023/10/25 07:35:32;;;;;;;31.02;9.15;;;;;;;17.35;55.14;94014.66;4208602;28;20263;-73
2023/10/25 07:37:34;;;;;;;22.27;6.93;;;;;;;17.31;54.61;94015.31;4213759;28;20056;-74
2023/10/25 07:39:36;;;;;;;31.25;8.73;;;;;;;17.15;54.87;94011.41;4214381;28;20062;-74
2023/10/25 07:41:38;;;;;;;33.45;8.10;;;;;;;17.23;55.15;94018.25;4193804;28;20508;-74
2023/10/25 07:43:40;;;;;;;24.80;7.32;;;;;;;17.27;54.91;94022.91;4214561;28;20135;-73
2023/10/25 07:45:42;;;;;;;33.63;7.53;;;;;;;17.39;54.56;94028.28;4208918;28;20477;-73
2023/10/25 07:47:44;;;;;;;33.17;8.63;;;;;;;17.29;54.52;94025.31;4211981;28;20048;-74
2023/10/25 07:49:46;;;;;;;27.02;7.80;;;;;;;17.34;54.55;94031.59;4213294;28;20388;-73
2023/10/25 07:51:49;;;;;;;24.83;7.65;;;;;;;17.50;54.37;94029.41;4210214;28;20048;-72
2023/10/25 07:53:53;;;;;;;27.77;8.27;;;;;;;17.65;54.11;94013.19;4214276;28;20086;-72
2023/10/25 07:55:55;;;;;;;31.50;8.68;;;;;;;17.76;53.82;94020.41;4205851;28;20060;-73
2023/10/25 07:58:17;;;;;;;30.92;9.00;;;;;;;17.57;53.65;94032.81;4214038;28;20044;-72
2023/10/25 08:00:28;;;;;;;26.42;8.38;;;;;;;17.69;53.73;94035.56;4213249;28;20127;-75
2023/10/25 08:02:30;;;;;;;25.00;9.15;;;;;;;17.78;53.39;94034.22;4215476;28;20450;-73
2023/10/25 08:04:32;;;;;;;27.60;8.45;;;;;;;17.79;53.44;94041.97;4203362;28;20048;-74
2023/10/25 08:06:34;;;;;;;27.88;8.55;;;;;;;17.91;53.24;94044.72;4180088;28;20067;-74
2023/10/25 08:08:36;;;;;;;33.15;8.00;;;;;;;18.03;53.00;94039.50;4214113;28;20044;-74
2023/10/25 08:10:38;;;;;;;28.10;8.82;;;;;;;18.13;52.86;94036.31;4210982;28;20044;-72
2023/10/25 08:12:40;;;;;;;35.38;8.93;;;;;;;18.23;52.25;94033.97;4214420;28;20481;-72
2023/10/25 08:14:42;;;;;;;31.73;8.45;;;;;;;18.31;52.46;94036.31;4213321;28;20138;-73
2023/10/25 08:16:46;;;;;;;25.20;8.25;;;;;;;18.42;52.05;94051.47;4195302;28;21171;-73
2023/10/25 08:18:49;;;;;;;30.15;8.38;;;;;;;18.53;51.79;94052.56;4196799;28;20041;-73
2023/10/25 08:20:51;;;;;;;32.95;7.45;;;;;;;18.60;51.68;94052.47;4196087;28;20047;-73
2023/10/25 08:23:01;;;;;;;34.55;8.75;;;;;;;18.70;51.77;94051.94;4214317;28;20130;-73
2023/10/25 08:25:08;;;;;;;22.25;7.15;;;;;;;18.78;51.26;94051.66;4177054;28;20540;-74
2023/10/25 08:27:11;;;;;;;30.13;7.57;;;;;;;18.82;50.99;94064.25;4208398;28;20040;-74
2023/10/25 08:29:13;;;;;;;26.13;7.22;;;;;;;18.89;50.75;94066.81;4213060;28;20044;-74
2023/10/25 08:31:17;;;;;;;40.10;7.68;;;;;;;18.90;50.44;94052.50;4183634;28;20088;-74
2023/10/25 08:33:19;;;;;;;28.33;7.65;;;;;;;18.97;50.33;94052.41;4179585;28;20090;-73
2023/10/25 08:35:21;;;;;;;33.17;8.60;;;;;;;19.03;50.50;94059.47;4184917;28;20080;-73
2023/10/25 08:37:23;;;;;;;26.75;8.40;;;;;;;19.05;50.35;94056.59;4185172;28;20470;-73
2023/10/25 08:39:25;;;;;;;31.48;8.25;;;;;;;19.11;49.89;94061.78;4175997;28;20505;-72
2023/10/25 08:41:27;;;;;;;25.45;7.63;;;;;;;19.18;49.83;94059.84;4214557;28;20123;-73
2023/10/25 08:43:30;;;;;;;27.73;7.88;;;;;;;19.05;50.11;94060.03;4213307;28;20052;-73
2023/10/25 08:45:34;;;;;;;34.20;8.90;;;;;;;19.02;49.92;94069.28;4195183;28;20056;-74
2023/10/25 08:47:39;;;;;;;29.50;7.20;;;;;;;19.11;49.89;94079.56;4180217;28;20313;-74
2023/10/25 08:49:41;;;;;;;32.22;10.27;;;;;;;19.12;49.87;94063.44;4206201;28;20097;-73
2023/10/25 08:51:45;;;;;;;30.85;8.38;;;;;;;19.26;49.75;94056.06;4214175;28;20048;-73
2023/10/25 08:53:48;;;;;;;41.38;7.50;;;;;;;19.39;49.43;94061.16;4213620;28;20087;-74
2023/10/25 08:55:56;;;;;;;41.75;8.82;;;;;;;19.51;48.73;94055.88;4212234;28;20659;-74
2023/10/25 08:57:58;;;;;;;44.45;8.48;;;;;;;19.60;48.81;94059.78;4184875;28;20127;-73
2023/10/25 09:00:00;;;;;;;31.30;7.50;;;;;;;19.71;48.97;94049.44;4204905;28;20052;-75
2023/10/25 09:02:04;;;;;;;39.13;7.88;;;;;;;19.77;48.66;94051.16;4194589;28;20056;-72
2023/10/25 09:04:07;;;;;;;32.55;6.90;;;;;;;19.83;48.30;94045.72;4214117;28;20161;-71
2023/10/25 09:06:10;;;;;;;;;;;;;;;19.80;48.53;94045.38;4211131;28;20106;-72
2023/10/25 09:08:16;;;;;;;26.98;7.68;;;;;;;19.86;48.40;94043.66;4210241;28;20014;-75
2023/10/25 09:10:19;;;;;;;43.75;7.72;;;;;;;19.86;48.00;94049.78;4191597;28;20059;-74
2023/10/25 09:12:22;;;;;;;31.98;7.53;;;;;;;19.91;48.10;94052.53;4209086;28;20140;-75
2023/10/25 09:14:25;;;;;;;30.90;7.15;;;;;;;20.04;47.99;94056.78;4210420;28;20447;-74
2023/10/25 09:16:27;;;;;;;29.48;7.57;;;;;;;20.11;47.79;94048.69;4195422;28;20048;-75
2023/10/25 09:18:30;;;;;;;30.85;8.75;;;;;;;20.11;47.59;94044.22;4211641;28;20098;-72
2023/10/25 09:20:32;;;;;;;37.60;8.50;;;;;;;20.01;47.66;94060.72;4195146;28;20492;-73
2023/10/25 09:22:34;;;;;;;37.65;8.75;;;;;;;20.05;47.69;94053.13;4208165;28;20044;-72
2023/10/25 09:24:49;;;;;;;32.53;7.65;;;;;;;20.16;47.64;94046.97;4207684;28;20523;-72
2023/10/25 09:26:54;;;;;;;38.60;7.60;;;;;;;20.29;47.56;94051.22;4201395;28;20037;-73
2023/10/25 09:28:56;;;;;;;35.25;7.80;;;;;;;20.46;47.06;94049.44;4206347;28;20052;-74
2023/10/25 09:31:00;;;;;;;40.25;7.45;;;;;;;20.60;46.58;94046.50;4200983;28;20053;-74
2023/10/25 09:33:04;;;;;;;36.50;7.30;;;;;;;20.65;46.38;94047.44;4213222;28;20052;-75